Terminal Aerodrome Forecast
Issued by NWS Cleveland, OH

Home | Current Version | Previous Version | Graphics & Text | Print | Product List | Glossary Off
Versions: 1 2 3 4 5 6 7 8 9 10 11 12 13 14 15 16 17 18 19 20 21 22 23 24

184
FTUS41 KCLE 122257 AAA
TAFERI
TAF AMD
KERI 122257Z 1223/1318 23012KT 1/4SM +SN VV008
      TEMPO 1223/1301 28020G30KT 1SM -SN BLSN OVC012
     FM130100 33018G30KT 4SM -SHSN OVC025
     FM130800 33015G25KT 1 1/2SM -SHSN OVC015
     FM131400 31015G25KT 5SM -SHSN OVC025=

USA.gov is the U.S. government's official web portal to all federal, state and local government web resources and services.